• Join FlightAware (Why Join?)
  • Login
  • US Flag 
09:56AM EDT


 

Airport Tracker/Info


-or-


 

Live Flight TrackerFlight Track Log ✈ EJA312 ✈ 12-Oct-2013 ✈ KBED - KBHB

Flight Track Log - Related Links

Times and Time Zones

All times are in EDT time to prevent confusion due to time zone crossing. See the EJA312 flight status page for this flight to view local times or setup timezone preferences in your user account.

Time Position Orientation Groundspeed Altitude Reporting Facility
EDT Latitude Longitude Course Direction KTS MPH feet Rate Location/Type
11:40AM 42.4667 -71.2667 56° Northeast 175 201 1,300  Level KA90
11:41AM 42.4833 -71.2333 56° Northeast 198 228 2,100 420 Climbing KA90
11:42AM 42.5167 -71.1667 56° Northeast 184 212 2,100 1,920 Level KA90
11:44AM 42.5978 -71.0100 55° Northeast 244 281 8,600 2,280 Climbing Boston Center
11:45AM 42.6403 -70.9189 58° Northeast 276 318 9,800 2,040 Climbing Boston Center
11:47AM 42.6810 -70.8064 64° Northeast  Level FlightAware Approximate
11:47AM 42.7461 -70.7297 64° Northeast 304 350 14,900  Level Boston Center
11:48AM 42.8194 -70.6314 45° Northeast 350 403 17,100 1,560 Climbing Boston Center
11:49AM 42.8950 -70.5300 44° Northeast 375 432 18,100 900 Climbing Boston Center
11:50AM 42.9764 -70.4194 45° Northeast 400 460 19,000 420 Climbing Boston Center
11:51AM 43.0497 -70.3206 45° Northeast 400 460 19,000  Level Boston Center
11:52AM 43.1350 -70.2036 45° Northeast 395 455 19,000  Level Boston Center
11:53AM 43.2061 -70.1100 44° Northeast 395 455 19,000  Level Boston Center
11:54AM 43.2911 -69.9925 45° Northeast 395 455 19,000  Level Boston Center
11:55AM 43.3619 -69.8956 45° Northeast 395 455 19,000  Level Boston Center
11:56AM 43.4489 -69.7803 44° Northeast 395 455 19,000  Level Boston Center
11:57AM 43.5197 -69.6828 45° Northeast 395 455 19,000  Level Boston Center
11:58AM 43.6042 -69.5583 47° Northeast 395 455 19,000  Level Boston Center
11:59AM 43.6681 -69.4519 50° Northeast 400 460 19,000  Level Boston Center
12:00PM 43.7481 -69.3244 49° Northeast 400 460 19,000 -720 Level Boston Center
12:01PM 43.8219 -69.2025 50° Northeast 400 460 17,600 -1,740 Descending Boston Center
12:02PM 43.8936 -69.0864 49° Northeast 400 460 15,600 -2,340 Descending Boston Center
12:03PM 43.9653 -68.9725 49° Northeast 395 455 12,900 -2,280 Descending Boston Center
12:04PM 44.0228 -68.8769 50° Northeast 371 427 11,100 -2,160 Descending Boston Center
12:05PM 44.0744 -68.7958 48° Northeast 310 357 8,700 -2,400 Descending Boston Center
12:06PM 44.1219 -68.7175 50° Northeast 275 316 6,300 -2,220 Descending Boston Center
12:07PM 44.1694 -68.6453 47° Northeast 257 296 4,300 -1,620 Descending Boston Center
12:08PM 44.2131 -68.5728 50° Northeast 247 284 3,100 -660 Descending Boston Center
12:09PM 44.2483 -68.5067 53° Northeast 241 277 3,000 -60 Descending Boston Center
12:10PM 44.2917 -68.4369 49° Northeast 220 253 3,000 4,020 Level Boston Center
12:11PM 44.3311 -68.3706 50° Northeast 220 253 11,000 3,960 Climbing Boston Center
12:12PM 44.3703 -68.3011 52° Northeast 220 253 11,000  Level Boston Center
12:13PM 44.4094 -68.2342 51° Northeast 220 253 11,000  Level Boston Center
12:14PM 44.4331 -68.1919 52° Northeast 220 253 11,000  Level Boston Center
12:15PM 44.4331 -68.1919 216° Southwest 220 253 11,000  Level Boston Center
12:17PM 44.4331 -68.1919 216° Southwest 220 253 11,000  Level Boston Center